createdAt,value
2022-12-13T00:01:24.664Z,94132.22
2022-12-13T00:03:53.871Z,94130.78
2022-12-13T00:06:23.046Z,94133.72
2022-12-13T00:08:50.826Z,94134.69
2022-12-13T00:11:19.372Z,94139.16
2022-12-13T00:13:47.920Z,94128.28
2022-12-13T00:16:17.637Z,94130.78
2022-12-13T00:18:49.221Z,94133.06
2022-12-13T00:21:19.025Z,94126.25
2022-12-13T00:23:48.703Z,94129.66
2022-12-13T00:26:18.381Z,94130.53
2022-12-13T00:28:48.115Z,94123.41
2022-12-13T00:34:03.881Z,94117.56
2022-12-13T00:36:31.511Z,94124.31
2022-12-13T00:39:03.137Z,94112.41
2022-12-13T00:41:32.773Z,94116.66
2022-12-13T00:44:00.993Z,94118.31
2022-12-13T00:46:29.700Z,94114.88
2022-12-13T00:48:58.658Z,94110.03
2022-12-13T00:51:27.578Z,94104.00
2022-12-13T00:53:55.401Z,94112.03
2022-12-13T00:56:25.961Z,94105.47
2022-12-13T00:58:54.326Z,94105.13
2022-12-13T01:01:24.497Z,94108.91
2022-12-13T01:03:52.448Z,94101.81
2022-12-13T01:06:21.966Z,94096.38
2022-12-13T01:08:49.752Z,94097.75
2022-12-13T01:11:18.612Z,94107.00
2022-12-13T01:13:47.637Z,94091.97
2022-12-13T01:16:15.394Z,94089.47
2022-12-13T01:18:43.146Z,94093.31
2022-12-13T01:21:12.809Z,94082.44
2022-12-13T01:23:41.249Z,94087.38
2022-12-13T01:26:10.653Z,94079.44
2022-12-13T01:28:38.411Z,94068.88
2022-12-13T01:31:09.509Z,94074.16
2022-12-13T01:33:37.680Z,94072.03
2022-12-13T01:36:08.333Z,94066.44
2022-12-13T01:38:38.012Z,94063.94
2022-12-13T01:41:16.877Z,94067.56
2022-12-13T01:43:54.912Z,94065.84
2022-12-13T01:46:24.369Z,94049.53
2022-12-13T01:48:57.592Z,94049.16
2022-12-13T01:51:28.328Z,94048.72
2022-12-13T01:53:57.926Z,94050.19
2022-12-13T01:56:29.254Z,94053.53
2022-12-13T01:58:57.785Z,94049.72
2022-12-13T02:01:26.974Z,94050.56
2022-12-13T02:03:54.664Z,94046.75
2022-12-13T02:06:27.781Z,94040.31
2022-12-13T02:08:55.434Z,94027.91
2022-12-13T02:11:23.761Z,94026.59
2022-12-13T02:13:51.474Z,94027.56
2022-12-13T02:16:29.261Z,94018.97
2022-12-13T02:19:09.474Z,94016.84
2022-12-13T02:21:44.706Z,94015.00
2022-12-13T02:24:35.254Z,94019.63
2022-12-13T02:27:09.835Z,94014.34
2022-12-13T02:30:12.545Z,94016.69
2022-12-13T02:32:44.360Z,94013.03
2022-12-13T02:35:12.716Z,94015.00
2022-12-13T02:37:50.027Z,94015.69
2022-12-13T02:40:23.012Z,94020.50
2022-12-13T02:42:56.076Z,94017.69
2022-12-13T02:45:30.165Z,94014.06
2022-12-13T02:47:59.134Z,94002.81
2022-12-13T02:50:27.456Z,94004.13
2022-12-13T02:52:55.712Z,93998.16
2022-12-13T02:55:27.966Z,94001.22
2022-12-13T02:57:56.041Z,93995.75
2022-12-13T03:00:31.153Z,93991.81
2022-12-13T03:03:11.011Z,93998.06
2022-12-13T03:06:01.778Z,93993.59
2022-12-13T03:08:36.770Z,93994.59
2022-12-13T03:11:07.617Z,93990.75
2022-12-13T03:13:38.930Z,93988.97
2022-12-13T03:16:13.072Z,93989.94
2022-12-13T03:18:41.559Z,93984.78
2022-12-13T03:21:10.416Z,93987.69
2022-12-13T03:23:38.523Z,93977.28
2022-12-13T03:26:09.413Z,93981.22
2022-12-13T03:28:37.482Z,93980.03
2022-12-13T03:31:05.538Z,93977.38
2022-12-13T03:33:34.928Z,93983.00
2022-12-13T03:36:03.246Z,93982.84
2022-12-13T03:38:31.376Z,93984.31
2022-12-13T03:41:02.248Z,93987.97
2022-12-13T03:43:30.293Z,93976.41
2022-12-13T03:45:58.133Z,93983.97
2022-12-13T03:48:25.997Z,93979.50
2022-12-13T03:50:55.712Z,93981.31
2022-12-13T03:53:33.177Z,93976.34
2022-12-13T03:56:02.677Z,93966.47
2022-12-13T03:58:35.827Z,93975.66
2022-12-13T04:01:04.951Z,93968.56
2022-12-13T04:03:32.584Z,93968.06
2022-12-13T04:06:01.575Z,93964.91
2022-12-13T04:08:29.261Z,93974.63
2022-12-13T04:10:56.967Z,93962.72
2022-12-13T04:13:32.510Z,93965.63
2022-12-13T04:16:00.437Z,93961.19
2022-12-13T04:18:28.159Z,93955.38
2022-12-13T04:20:55.788Z,93954.16
2022-12-13T04:23:24.783Z,93960.91
2022-12-13T04:25:52.490Z,93950.59
2022-12-13T04:28:22.187Z,93954.22
2022-12-13T04:30:52.803Z,93953.53
2022-12-13T04:33:21.825Z,93946.69
2022-12-13T04:35:49.543Z,93951.25
2022-12-13T04:38:17.261Z,93944.19
2022-12-13T04:40:46.339Z,93945.88
2022-12-13T04:43:13.995Z,93948.50
2022-12-13T04:45:41.906Z,93945.50
2022-12-13T04:48:09.771Z,93944.22
2022-12-13T04:50:37.500Z,93942.91
2022-12-13T04:53:05.193Z,93945.94
2022-12-13T04:55:32.933Z,93942.31
2022-12-13T04:58:01.945Z,93937.03
2022-12-13T05:00:29.679Z,93939.97
2022-12-13T05:02:57.387Z,93934.34
2022-12-13T05:05:25.049Z,93942.25
2022-12-13T05:07:52.751Z,93942.03
2022-12-13T05:10:35.850Z,93935.56
2022-12-13T05:13:07.473Z,93939.16
2022-12-13T05:15:35.557Z,93927.28
2022-12-13T05:18:09.592Z,93928.19
2022-12-13T05:20:39.297Z,93933.28
2022-12-13T05:23:07.080Z,93933.00
2022-12-13T05:25:35.121Z,93929.00
2022-12-13T05:28:09.096Z,93938.25
2022-12-13T05:30:51.980Z,93929.31
2022-12-13T05:33:20.021Z,93930.50
2022-12-13T17:36:43.557Z,93835.59
2022-12-13T17:39:30.237Z,93840.06
2022-12-13T17:41:57.874Z,93835.97
2022-12-13T17:44:25.905Z,93828.84
2022-12-13T17:46:54.636Z,93835.59
2022-12-13T17:49:23.133Z,93837.91
2022-12-13T17:51:53.973Z,93827.88
2022-12-13T17:54:21.970Z,93826.53
2022-12-13T17:56:49.569Z,93827.50
2022-12-13T17:59:17.677Z,93818.44
2022-12-13T18:01:45.702Z,93827.34
2022-12-13T18:04:13.705Z,93819.41
2022-12-13T18:06:41.544Z,93820.91
2022-12-13T18:09:12.859Z,93817.13
2022-12-13T18:11:40.672Z,93818.63
2022-12-13T18:14:09.807Z,93820.44
2022-12-13T18:16:39.147Z,93819.47
2022-12-13T18:19:08.190Z,93818.28
2022-12-13T18:21:37.018Z,93806.25
2022-12-13T18:24:06.172Z,93815.81
2022-12-13T18:26:35.504Z,93818.31
2022-12-13T18:29:03.401Z,93817.66
2022-12-13T18:31:31.238Z,93808.56
2022-12-13T18:33:58.987Z,93807.56
2022-12-13T18:36:27.230Z,93807.06
2022-12-13T18:38:55.113Z,93806.09
2022-12-13T18:41:24.088Z,93803.63
2022-12-13T18:43:59.434Z,93797.00
2022-12-13T18:46:27.992Z,93798.34
2022-12-13T18:48:56.698Z,93802.44
2022-12-13T18:51:24.633Z,93796.81
2022-12-13T18:53:52.947Z,93801.63
2022-12-13T18:56:20.855Z,93794.50
2022-12-13T18:58:49.019Z,93793.69
2022-12-13T19:01:19.204Z,93800.28
2022-12-13T19:03:48.339Z,93791.38
2022-12-13T19:06:17.616Z,93800.28
2022-12-13T19:08:48.155Z,93795.50
2022-12-13T19:11:15.857Z,93782.13
2022-12-13T19:13:43.653Z,93779.28
2022-12-13T19:16:15.311Z,93794.50
2022-12-13T19:18:44.616Z,93786.91
2022-12-13T19:21:15.648Z,93778.47
2022-12-13T19:23:43.463Z,93767.72
2022-12-13T19:26:13.137Z,93763.94
2022-12-13T19:28:42.388Z,93766.06
2022-12-13T19:31:11.055Z,93765.56
2022-12-13T19:33:38.863Z,93770.34
2022-12-13T19:36:09.377Z,93778.63
2022-12-13T19:38:37.991Z,93779.47
2022-12-13T19:41:09.834Z,93770.03
2022-12-13T19:43:37.558Z,93765.41
2022-12-13T19:46:05.592Z,93761.44
2022-12-13T19:48:34.320Z,93756.28
2022-12-13T19:51:02.750Z,93745.03
2022-12-13T19:53:32.156Z,93733.13
2022-12-13T19:56:00.500Z,93723.06
2022-12-13T19:58:28.481Z,93725.22
2022-12-13T20:01:02.686Z,93734.16
2022-12-13T20:03:33.142Z,93731.00
2022-12-13T20:06:03.573Z,93733.00
2022-12-13T20:08:33.127Z,93740.63
2022-12-13T20:11:02.768Z,93739.47
2022-12-13T20:13:31.105Z,93748.25
2022-12-13T20:15:59.169Z,93750.09
2022-12-13T20:18:27.442Z,93750.41
2022-12-13T20:21:11.561Z,93752.53
2022-12-13T20:23:42.400Z,93745.09
2022-12-13T20:26:19.068Z,93740.78
2022-12-13T20:28:46.850Z,93728.19
2022-12-13T20:31:15.923Z,93722.38
2022-12-13T20:33:43.792Z,93723.03
2022-12-13T20:36:28.572Z,93718.88
2022-12-13T20:38:59.543Z,93712.41
2022-12-13T20:41:28.786Z,93706.16
2022-12-13T20:43:57.652Z,93698.84
2022-12-13T20:46:26.145Z,93691.41
2022-12-13T20:48:55.100Z,93688.44
2022-12-13T20:51:24.641Z,93692.38
2022-12-13T20:53:53.438Z,93686.44
2022-12-13T20:56:24.023Z,93681.97
2022-12-13T20:58:52.215Z,93683.44
2022-12-13T21:01:22.900Z,93685.44
2022-12-13T21:03:50.978Z,93685.78
2022-12-13T21:06:18.623Z,93687.06
2022-12-13T21:08:51.957Z,93678.97
2022-12-13T21:11:25.495Z,93685.19
2022-12-13T21:13:56.455Z,93678.19
2022-12-13T21:16:24.932Z,93657.16
2022-12-13T21:18:54.160Z,93662.91
2022-12-13T21:21:21.821Z,93672.53
2022-12-13T21:23:49.485Z,93667.53
2022-12-13T21:26:18.261Z,93658.56
2022-12-13T21:28:46.278Z,93650.13
2022-12-13T21:31:15.393Z,93646.00
2022-12-13T21:33:43.035Z,93638.72
2022-12-13T21:36:12.395Z,93649.59
2022-12-13T21:38:40.059Z,93653.53
2022-12-13T21:41:08.974Z,93646.97
2022-12-13T21:43:40.206Z,93632.91
2022-12-13T21:46:09.841Z,93625.44
2022-12-13T21:48:40.623Z,93648.56
2022-12-13T21:51:09.839Z,93647.56
2022-12-13T21:53:37.840Z,93627.19
2022-12-13T21:56:23.879Z,93611.97
2022-12-13T21:59:08.893Z,93599.25
2022-12-13T22:01:50.704Z,93605.31
2022-12-13T22:04:21.136Z,93601.31
2022-12-13T22:06:49.010Z,93602.94
2022-12-13T22:09:16.745Z,93606.44
2022-12-13T22:11:44.359Z,93600.47
2022-12-13T22:14:11.996Z,93611.81
2022-12-13T22:16:39.715Z,93610.38
2022-12-13T22:19:07.495Z,93611.69
2022-12-13T22:21:36.560Z,93608.47
2022-12-13T22:24:04.328Z,93606.22
2022-12-13T22:26:32.001Z,93608.13
2022-12-13T22:28:59.691Z,93609.44
2022-12-13T22:31:29.866Z,93613.84
2022-12-13T22:33:58.153Z,93616.59
2022-12-13T22:36:26.303Z,93612.63
2022-12-13T22:38:55.384Z,93603.28
2022-12-13T22:41:23.096Z,93612.56
2022-12-13T22:43:50.820Z,93611.53
2022-12-13T22:46:20.189Z,93619.72
2022-12-13T22:48:48.077Z,93615.72
2022-12-13T22:51:17.347Z,93604.31
2022-12-13T22:53:47.875Z,93584.41
2022-12-13T22:56:18.234Z,93583.88
2022-12-13T22:58:46.940Z,93594.28
2022-12-13T23:01:16.932Z,93586.06
2022-12-13T23:03:45.458Z,93594.81
2022-12-13T23:06:14.473Z,93582.22
2022-12-13T23:08:44.826Z,93583.34
2022-12-13T23:11:30.647Z,93570.56
2022-12-13T23:14:01.862Z,93569.00
2022-12-13T23:16:31.208Z,93580.31
2022-12-13T23:19:24.144Z,93582.31
2022-12-13T23:21:48.552Z,93579.31
2022-12-13T23:24:16.673Z,93573.66
2022-12-13T23:26:44.390Z,93565.34
2022-12-13T23:29:13.436Z,93563.59
2022-12-13T23:31:42.051Z,93549.00
2022-12-13T23:34:10.365Z,93546.81
2022-12-13T23:36:38.494Z,93533.00
2022-12-13T23:39:07.426Z,93537.25
2022-12-13T23:41:35.367Z,93538.47
2022-12-13T23:44:03.168Z,93539.91
2022-12-13T23:46:34.367Z,93531.44
2022-12-13T23:49:03.599Z,93523.84
2022-12-13T23:51:31.367Z,93521.19
2022-12-13T23:53:59.151Z,93516.53
2022-12-13T23:56:26.798Z,93508.28
2022-12-13T23:58:54.463Z,93508.56
